sensor_id;sensor_type;location;lat;lon;timestamp;P1;durP1;ratioP1;P2;durP2;ratioP2
13374;SDS011;6756;51.354;15.754;2023-12-04T00:03:57;19.40;;;10.23;;
13374;SDS011;6756;51.354;15.754;2023-12-04T00:07:59;16.80;;;9.60;;
13374;SDS011;6756;51.354;15.754;2023-12-04T00:12:00;22.23;;;11.03;;
13374;SDS011;6756;51.354;15.754;2023-12-04T00:16:01;20.40;;;10.03;;
13374;SDS011;6756;51.354;15.754;2023-12-04T00:20:02;25.77;;;13.10;;
13374;SDS011;6756;51.354;15.754;2023-12-04T00:24:04;23.43;;;12.23;;
13374;SDS011;6756;51.354;15.754;2023-12-04T00:28:05;42.50;;;17.93;;
13374;SDS011;6756;51.354;15.754;2023-12-04T00:32:06;42.13;;;18.10;;
13374;SDS011;6756;51.354;15.754;2023-12-04T00:36:10;30.40;;;15.47;;
13374;SDS011;6756;51.354;15.754;2023-12-04T00:40:14;29.33;;;15.13;;
13374;SDS011;6756;51.354;15.754;2023-12-04T00:44:15;23.30;;;14.33;;
13374;SDS011;6756;51.354;15.754;2023-12-04T00:48:16;28.57;;;13.27;;
13374;SDS011;6756;51.354;15.754;2023-12-04T00:52:16;25.13;;;11.97;;
13374;SDS011;6756;51.354;15.754;2023-12-04T00:56:18;22.37;;;12.17;;
13374;SDS011;6756;51.354;15.754;2023-12-04T01:00:20;24.37;;;12.50;;
13374;SDS011;6756;51.354;15.754;2023-12-04T01:04:21;18.97;;;10.90;;
13374;SDS011;6756;51.354;15.754;2023-12-04T01:08:22;19.23;;;10.63;;
13374;SDS011;6756;51.354;15.754;2023-12-04T01:12:24;17.10;;;9.33;;
13374;SDS011;6756;51.354;15.754;2023-12-04T01:16:27;20.30;;;10.00;;
13374;SDS011;6756;51.354;15.754;2023-12-04T01:20:28;23.23;;;11.60;;
13374;SDS011;6756;51.354;15.754;2023-12-04T01:24:29;20.90;;;10.43;;
13374;SDS011;6756;51.354;15.754;2023-12-04T01:28:30;22.50;;;11.03;;
13374;SDS011;6756;51.354;15.754;2023-12-04T01:32:31;20.47;;;10.37;;
13374;SDS011;6756;51.354;15.754;2023-12-04T01:36:32;23.43;;;11.67;;
13374;SDS011;6756;51.354;15.754;2023-12-04T01:40:33;19.57;;;10.20;;
13374;SDS011;6756;51.354;15.754;2023-12-04T01:44:34;22.50;;;11.43;;
13374;SDS011;6756;51.354;15.754;2023-12-04T01:48:36;21.70;;;10.63;;
13374;SDS011;6756;51.354;15.754;2023-12-04T01:52:38;24.60;;;11.17;;
13374;SDS011;6756;51.354;15.754;2023-12-04T01:56:40;69.70;;;25.00;;
13374;SDS011;6756;51.354;15.754;2023-12-04T02:00:41;124.97;;;34.70;;
13374;SDS011;6756;51.354;15.754;2023-12-04T02:04:42;50.80;;;19.60;;
13374;SDS011;6756;51.354;15.754;2023-12-04T02:08:43;97.27;;;34.00;;
13374;SDS011;6756;51.354;15.754;2023-12-04T02:12:46;93.60;;;32.97;;
13374;SDS011;6756;51.354;15.754;2023-12-04T02:16:48;61.30;;;21.37;;
13374;SDS011;6756;51.354;15.754;2023-12-04T02:20:51;47.80;;;17.73;;
13374;SDS011;6756;51.354;15.754;2023-12-04T02:24:53;42.17;;;16.97;;
13374;SDS011;6756;51.354;15.754;2023-12-04T02:28:59;42.73;;;17.90;;
13374;SDS011;6756;51.354;15.754;2023-12-04T02:33:05;52.33;;;18.97;;
13374;SDS011;6756;51.354;15.754;2023-12-04T02:37:09;46.33;;;19.07;;
13374;SDS011;6756;51.354;15.754;2023-12-04T02:41:11;27.43;;;11.13;;
13374;SDS011;6756;51.354;15.754;2023-12-04T02:45:12;18.83;;;9.17;;
13374;SDS011;6756;51.354;15.754;2023-12-04T02:49:13;18.20;;;9.20;;
13374;SDS011;6756;51.354;15.754;2023-12-04T02:53:14;19.97;;;9.13;;
13374;SDS011;6756;51.354;15.754;2023-12-04T02:57:17;16.33;;;8.30;;
13374;SDS011;6756;51.354;15.754;2023-12-04T03:01:18;18.23;;;8.70;;
13374;SDS011;6756;51.354;15.754;2023-12-04T03:05:19;15.17;;;7.67;;
13374;SDS011;6756;51.354;15.754;2023-12-04T03:09:20;13.23;;;7.33;;
13374;SDS011;6756;51.354;15.754;2023-12-04T03:13:20;13.80;;;7.83;;
13374;SDS011;6756;51.354;15.754;2023-12-04T03:17:21;19.83;;;8.17;;
13374;SDS011;6756;51.354;15.754;2023-12-04T03:21:22;16.13;;;8.53;;
13374;SDS011;6756;51.354;15.754;2023-12-04T03:25:27;30.50;;;13.23;;
13374;SDS011;6756;51.354;15.754;2023-12-04T03:29:28;24.57;;;10.73;;
13374;SDS011;6756;51.354;15.754;2023-12-04T03:33:29;25.77;;;10.77;;
13374;SDS011;6756;51.354;15.754;2023-12-04T03:37:30;18.83;;;9.17;;
13374;SDS011;6756;51.354;15.754;2023-12-04T03:41:31;18.87;;;9.07;;
13374;SDS011;6756;51.354;15.754;2023-12-04T03:45:32;17.77;;;9.50;;
13374;SDS011;6756;51.354;15.754;2023-12-04T03:49:32;18.67;;;8.97;;
13374;SDS011;6756;51.354;15.754;2023-12-04T03:53:34;16.83;;;8.00;;
13374;SDS011;6756;51.354;15.754;2023-12-04T03:57:35;12.90;;;7.40;;
13374;SDS011;6756;51.354;15.754;2023-12-04T04:01:36;16.83;;;8.27;;
13374;SDS011;6756;51.354;15.754;2023-12-04T04:05:37;16.10;;;6.67;;
13374;SDS011;6756;51.354;15.754;2023-12-04T04:09:40;15.07;;;7.70;;
13374;SDS011;6756;51.354;15.754;2023-12-04T04:13:41;19.57;;;9.00;;
13374;SDS011;6756;51.354;15.754;2023-12-04T04:17:42;15.37;;;7.67;;
13374;SDS011;6756;51.354;15.754;2023-12-04T04:21:44;27.83;;;12.27;;
13374;SDS011;6756;51.354;15.754;2023-12-04T04:25:45;39.30;;;14.13;;
13374;SDS011;6756;51.354;15.754;2023-12-04T04:29:46;23.87;;;9.90;;
13374;SDS011;6756;51.354;15.754;2023-12-04T04:33:47;39.87;;;13.23;;
13374;SDS011;6756;51.354;15.754;2023-12-04T04:37:48;31.47;;;10.47;;
13374;SDS011;6756;51.354;15.754;2023-12-04T04:41:52;19.13;;;8.97;;
13374;SDS011;6756;51.354;15.754;2023-12-04T04:45:53;17.87;;;7.93;;
13374;SDS011;6756;51.354;15.754;2023-12-04T04:49:53;18.03;;;9.00;;
13374;SDS011;6756;51.354;15.754;2023-12-04T04:57:59;17.50;;;8.00;;
13374;SDS011;6756;51.354;15.754;2023-12-04T05:02:01;16.03;;;6.97;;
13374;SDS011;6756;51.354;15.754;2023-12-04T05:06:03;18.27;;;9.17;;
13374;SDS011;6756;51.354;15.754;2023-12-04T05:10:04;21.30;;;9.20;;
13374;SDS011;6756;51.354;15.754;2023-12-04T05:14:05;27.53;;;11.43;;
13374;SDS011;6756;51.354;15.754;2023-12-04T05:18:06;27.30;;;12.53;;
13374;SDS011;6756;51.354;15.754;2023-12-04T05:22:08;35.03;;;12.20;;
13374;SDS011;6756;51.354;15.754;2023-12-04T05:26:09;22.30;;;9.30;;
13374;SDS011;6756;51.354;15.754;2023-12-04T05:30:10;24.80;;;9.83;;
13374;SDS011;6756;51.354;15.754;2023-12-04T05:34:11;16.43;;;8.43;;
13374;SDS011;6756;51.354;15.754;2023-12-04T05:38:12;19.67;;;9.07;;
13374;SDS011;6756;51.354;15.754;2023-12-04T05:42:13;23.03;;;9.67;;
13374;SDS011;6756;51.354;15.754;2023-12-04T05:46:14;27.93;;;10.37;;
13374;SDS011;6756;51.354;15.754;2023-12-04T05:50:15;20.90;;;9.70;;
13374;SDS011;6756;51.354;15.754;2023-12-04T05:54:17;24.70;;;10.60;;
13374;SDS011;6756;51.354;15.754;2023-12-04T05:58:18;24.87;;;10.53;;
13374;SDS011;6756;51.354;15.754;2023-12-04T06:02:19;28.70;;;11.20;;
13374;SDS011;6756;51.354;15.754;2023-12-04T06:06:20;45.70;;;13.50;;
13374;SDS011;6756;51.354;15.754;2023-12-04T06:10:21;60.40;;;18.57;;
13374;SDS011;6756;51.354;15.754;2023-12-04T06:14:22;25.17;;;10.77;;
13374;SDS011;6756;51.354;15.754;2023-12-04T06:18:24;35.97;;;13.40;;
13374;SDS011;6756;51.354;15.754;2023-12-04T06:22:25;28.53;;;12.90;;
13374;SDS011;6756;51.354;15.754;2023-12-04T06:26:26;38.60;;;16.13;;
13374;SDS011;6756;51.354;15.754;2023-12-04T06:30:28;37.00;;;16.80;;
13374;SDS011;6756;51.354;15.754;2023-12-04T06:34:29;32.77;;;15.47;;
13374;SDS011;6756;51.354;15.754;2023-12-04T06:38:32;37.93;;;16.53;;
13374;SDS011;6756;51.354;15.754;2023-12-04T06:42:37;43.50;;;18.23;;
13374;SDS011;6756;51.354;15.754;2023-12-04T06:46:38;93.93;;;33.77;;
13374;SDS011;6756;51.354;15.754;2023-12-04T06:50:41;176.50;;;52.10;;
13374;SDS011;6756;51.354;15.754;2023-12-04T06:54:47;144.87;;;44.33;;
13374;SDS011;6756;51.354;15.754;2023-12-04T06:58:48;105.73;;;33.50;;
13374;SDS011;6756;51.354;15.754;2023-12-04T07:02:49;83.67;;;28.67;;
13374;SDS011;6756;51.354;15.754;2023-12-04T07:06:51;122.73;;;41.00;;
13374;SDS011;6756;51.354;15.754;2023-12-04T07:10:52;127.77;;;42.33;;
13374;SDS011;6756;51.354;15.754;2023-12-04T07:14:53;115.30;;;40.97;;
13374;SDS011;6756;51.354;15.754;2023-12-04T07:18:54;104.53;;;35.93;;
13374;SDS011;6756;51.354;15.754;2023-12-04T07:22:55;90.50;;;33.00;;
13374;SDS011;6756;51.354;15.754;2023-12-04T07:26:58;86.40;;;30.33;;
13374;SDS011;6756;51.354;15.754;2023-12-04T07:30:59;59.83;;;23.60;;
13374;SDS011;6756;51.354;15.754;2023-12-04T07:35:03;49.73;;;19.00;;
13374;SDS011;6756;51.354;15.754;2023-12-04T07:39:05;63.30;;;20.30;;
13374;SDS011;6756;51.354;15.754;2023-12-04T07:43:07;62.50;;;23.70;;
13374;SDS011;6756;51.354;15.754;2023-12-04T07:47:07;94.47;;;33.83;;
13374;SDS011;6756;51.354;15.754;2023-12-04T07:51:08;97.63;;;34.10;;
13374;SDS011;6756;51.354;15.754;2023-12-04T07:55:10;95.37;;;37.30;;
13374;SDS011;6756;51.354;15.754;2023-12-04T07:59:11;108.40;;;38.40;;
13374;SDS011;6756;51.354;15.754;2023-12-04T08:03:11;101.93;;;38.93;;
13374;SDS011;6756;51.354;15.754;2023-12-04T08:07:12;112.83;;;36.90;;
13374;SDS011;6756;51.354;15.754;2023-12-04T08:11:14;137.50;;;49.23;;
13374;SDS011;6756;51.354;15.754;2023-12-04T08:15:14;137.80;;;46.23;;
13374;SDS011;6756;51.354;15.754;2023-12-04T08:19:15;127.23;;;42.17;;
13374;SDS011;6756;51.354;15.754;2023-12-04T08:23:16;87.50;;;30.20;;
13374;SDS011;6756;51.354;15.754;2023-12-04T08:27:17;51.37;;;23.17;;
13374;SDS011;6756;51.354;15.754;2023-12-04T08:31:18;61.57;;;27.73;;
13374;SDS011;6756;51.354;15.754;2023-12-04T08:35:19;56.43;;;29.03;;
13374;SDS011;6756;51.354;15.754;2023-12-04T08:39:20;61.40;;;27.83;;
13374;SDS011;6756;51.354;15.754;2023-12-04T08:43:22;87.27;;;36.30;;
13374;SDS011;6756;51.354;15.754;2023-12-04T08:47:24;78.17;;;30.90;;
13374;SDS011;6756;51.354;15.754;2023-12-04T08:51:25;99.63;;;38.83;;
13374;SDS011;6756;51.354;15.754;2023-12-04T08:55:28;69.07;;;31.30;;
13374;SDS011;6756;51.354;15.754;2023-12-04T08:59:29;51.20;;;26.03;;
13374;SDS011;6756;51.354;15.754;2023-12-04T09:03:30;58.33;;;27.40;;
13374;SDS011;6756;51.354;15.754;2023-12-04T09:07:31;172.53;;;63.47;;
13374;SDS011;6756;51.354;15.754;2023-12-04T09:11:32;171.40;;;66.73;;
13374;SDS011;6756;51.354;15.754;2023-12-04T09:15:33;107.10;;;44.43;;
13374;SDS011;6756;51.354;15.754;2023-12-04T09:19:34;49.53;;;24.93;;
13374;SDS011;6756;51.354;15.754;2023-12-04T09:23:35;48.20;;;24.37;;
13374;SDS011;6756;51.354;15.754;2023-12-04T09:27:36;62.90;;;30.13;;
13374;SDS011;6756;51.354;15.754;2023-12-04T09:31:37;49.27;;;26.37;;
13374;SDS011;6756;51.354;15.754;2023-12-04T09:35:38;42.37;;;23.27;;
13374;SDS011;6756;51.354;15.754;2023-12-04T09:39:39;44.83;;;25.10;;
13374;SDS011;6756;51.354;15.754;2023-12-04T09:43:40;55.40;;;28.00;;
13374;SDS011;6756;51.354;15.754;2023-12-04T09:47:42;41.50;;;21.97;;
13374;SDS011;6756;51.354;15.754;2023-12-04T09:51:44;43.03;;;23.10;;
13374;SDS011;6756;51.354;15.754;2023-12-04T09:55:48;43.17;;;22.87;;
13374;SDS011;6756;51.354;15.754;2023-12-04T09:59:50;42.93;;;23.40;;
13374;SDS011;6756;51.354;15.754;2023-12-04T10:03:52;39.97;;;22.40;;
13374;SDS011;6756;51.354;15.754;2023-12-04T10:07:53;36.77;;;20.90;;
13374;SDS011;6756;51.354;15.754;2023-12-04T10:11:56;35.90;;;21.30;;
13374;SDS011;6756;51.354;15.754;2023-12-04T10:16:02;40.40;;;22.30;;
13374;SDS011;6756;51.354;15.754;2023-12-04T10:24:33;39.93;;;21.57;;
13374;SDS011;6756;51.354;15.754;2023-12-04T10:28:36;41.97;;;23.40;;
13374;SDS011;6756;51.354;15.754;2023-12-04T10:32:39;36.17;;;21.33;;
13374;SDS011;6756;51.354;15.754;2023-12-04T10:36:40;41.47;;;24.63;;
13374;SDS011;6756;51.354;15.754;2023-12-04T10:40:40;34.63;;;21.70;;
13374;SDS011;6756;51.354;15.754;2023-12-04T10:44:41;39.00;;;22.27;;
13374;SDS011;6756;51.354;15.754;2023-12-04T10:48:45;51.77;;;29.23;;
13374;SDS011;6756;51.354;15.754;2023-12-04T10:52:47;53.40;;;29.33;;
13374;SDS011;6756;51.354;15.754;2023-12-04T10:56:49;41.00;;;25.63;;
13374;SDS011;6756;51.354;15.754;2023-12-04T11:00:52;42.47;;;24.70;;
13374;SDS011;6756;51.354;15.754;2023-12-04T11:04:55;39.50;;;23.23;;
13374;SDS011;6756;51.354;15.754;2023-12-04T11:09:03;45.23;;;23.77;;
13374;SDS011;6756;51.354;15.754;2023-12-04T11:13:10;39.80;;;22.40;;
13374;SDS011;6756;51.354;15.754;2023-12-04T11:17:17;44.37;;;24.63;;
13374;SDS011;6756;51.354;15.754;2023-12-04T11:21:20;39.17;;;23.30;;
13374;SDS011;6756;51.354;15.754;2023-12-04T11:25:23;35.57;;;21.53;;
13374;SDS011;6756;51.354;15.754;2023-12-04T11:29:24;44.07;;;24.33;;
13374;SDS011;6756;51.354;15.754;2023-12-04T11:33:27;41.77;;;25.53;;
13374;SDS011;6756;51.354;15.754;2023-12-04T11:37:29;42.40;;;24.30;;
13374;SDS011;6756;51.354;15.754;2023-12-04T11:41:30;43.50;;;25.80;;
13374;SDS011;6756;51.354;15.754;2023-12-04T11:45:35;47.07;;;27.60;;
13374;SDS011;6756;51.354;15.754;2023-12-04T11:49:40;49.27;;;29.40;;
13374;SDS011;6756;51.354;15.754;2023-12-04T11:53:40;65.30;;;30.63;;
13374;SDS011;6756;51.354;15.754;2023-12-04T11:57:44;82.50;;;34.93;;
13374;SDS011;6756;51.354;15.754;2023-12-04T12:01:45;75.87;;;31.43;;
13374;SDS011;6756;51.354;15.754;2023-12-04T12:05:51;47.63;;;25.57;;
13374;SDS011;6756;51.354;15.754;2023-12-04T12:09:53;42.80;;;24.53;;
13374;SDS011;6756;51.354;15.754;2023-12-04T12:13:56;41.90;;;24.93;;
13374;SDS011;6756;51.354;15.754;2023-12-04T12:17:57;40.53;;;22.93;;
13374;SDS011;6756;51.354;15.754;2023-12-04T12:21:58;46.60;;;25.27;;
13374;SDS011;6756;51.354;15.754;2023-12-04T12:25:59;49.23;;;26.30;;
13374;SDS011;6756;51.354;15.754;2023-12-04T12:30:00;67.90;;;33.37;;
13374;SDS011;6756;51.354;15.754;2023-12-04T12:34:03;69.47;;;33.37;;
13374;SDS011;6756;51.354;15.754;2023-12-04T12:38:04;62.13;;;37.03;;
13374;SDS011;6756;51.354;15.754;2023-12-04T12:42:05;71.43;;;32.80;;
13374;SDS011;6756;51.354;15.754;2023-12-04T12:46:08;64.57;;;29.27;;
13374;SDS011;6756;51.354;15.754;2023-12-04T12:50:11;57.03;;;26.90;;
13374;SDS011;6756;51.354;15.754;2023-12-04T12:54:13;40.03;;;21.23;;
13374;SDS011;6756;51.354;15.754;2023-12-04T12:58:14;43.13;;;23.57;;
13374;SDS011;6756;51.354;15.754;2023-12-04T13:02:20;34.87;;;21.67;;
13374;SDS011;6756;51.354;15.754;2023-12-04T13:10:25;37.83;;;21.27;;
13374;SDS011;6756;51.354;15.754;2023-12-04T13:14:26;47.70;;;24.00;;
13374;SDS011;6756;51.354;15.754;2023-12-04T13:18:28;57.43;;;24.63;;
13374;SDS011;6756;51.354;15.754;2023-12-04T13:22:31;58.67;;;26.77;;
13374;SDS011;6756;51.354;15.754;2023-12-04T13:26:33;64.97;;;33.53;;
13374;SDS011;6756;51.354;15.754;2023-12-04T13:30:34;64.87;;;34.47;;
13374;SDS011;6756;51.354;15.754;2023-12-04T13:34:35;37.60;;;22.03;;
13374;SDS011;6756;51.354;15.754;2023-12-04T13:38:35;42.97;;;23.37;;
13374;SDS011;6756;51.354;15.754;2023-12-04T13:42:37;50.10;;;25.87;;
13374;SDS011;6756;51.354;15.754;2023-12-04T13:46:57;39.53;;;20.90;;
13374;SDS011;6756;51.354;15.754;2023-12-04T13:50:58;31.20;;;17.90;;
13374;SDS011;6756;51.354;15.754;2023-12-04T13:55:00;32.43;;;18.27;;
13374;SDS011;6756;51.354;15.754;2023-12-04T13:59:01;32.83;;;19.57;;
13374;SDS011;6756;51.354;15.754;2023-12-04T14:03:04;30.63;;;17.53;;
13374;SDS011;6756;51.354;15.754;2023-12-04T14:07:07;128.90;;;49.60;;
13374;SDS011;6756;51.354;15.754;2023-12-04T14:11:08;109.40;;;45.30;;
13374;SDS011;6756;51.354;15.754;2023-12-04T14:15:11;202.03;;;72.37;;
13374;SDS011;6756;51.354;15.754;2023-12-04T14:19:11;200.43;;;78.30;;
13374;SDS011;6756;51.354;15.754;2023-12-04T14:23:16;58.63;;;30.70;;
13374;SDS011;6756;51.354;15.754;2023-12-04T14:27:18;77.23;;;29.40;;
13374;SDS011;6756;51.354;15.754;2023-12-04T14:31:19;72.03;;;25.17;;
13374;SDS011;6756;51.354;15.754;2023-12-04T14:35:23;46.87;;;21.07;;
13374;SDS011;6756;51.354;15.754;2023-12-04T14:39:27;30.67;;;16.40;;
13374;SDS011;6756;51.354;15.754;2023-12-04T14:43:28;45.40;;;20.03;;
13374;SDS011;6756;51.354;15.754;2023-12-04T14:47:29;43.37;;;20.17;;
13374;SDS011;6756;51.354;15.754;2023-12-04T14:51:30;36.57;;;20.07;;
13374;SDS011;6756;51.354;15.754;2023-12-04T14:55:33;34.67;;;20.23;;
13374;SDS011;6756;51.354;15.754;2023-12-04T15:00:06;42.43;;;24.17;;
13374;SDS011;6756;51.354;15.754;2023-12-04T15:04:10;49.73;;;24.13;;
13374;SDS011;6756;51.354;15.754;2023-12-04T15:08:11;49.80;;;27.30;;
13374;SDS011;6756;51.354;15.754;2023-12-04T15:12:30;54.63;;;29.63;;
13374;SDS011;6756;51.354;15.754;2023-12-04T15:16:50;52.33;;;25.50;;
13374;SDS011;6756;51.354;15.754;2023-12-04T15:21:02;45.23;;;26.67;;
13374;SDS011;6756;51.354;15.754;2023-12-04T15:25:05;101.90;;;42.63;;
13374;SDS011;6756;51.354;15.754;2023-12-04T15:29:11;71.47;;;35.13;;
13374;SDS011;6756;51.354;15.754;2023-12-04T15:33:12;58.43;;;27.80;;
13374;SDS011;6756;51.354;15.754;2023-12-04T15:37:13;54.90;;;26.20;;
13374;SDS011;6756;51.354;15.754;2023-12-04T15:41:14;45.67;;;23.20;;
13374;SDS011;6756;51.354;15.754;2023-12-04T15:45:17;66.53;;;30.13;;
13374;SDS011;6756;51.354;15.754;2023-12-04T15:49:17;102.43;;;34.53;;
13374;SDS011;6756;51.354;15.754;2023-12-04T15:53:18;53.63;;;24.90;;
13374;SDS011;6756;51.354;15.754;2023-12-04T15:57:19;63.80;;;36.27;;
13374;SDS011;6756;51.354;15.754;2023-12-04T16:01:21;33.90;;;18.83;;
13374;SDS011;6756;51.354;15.754;2023-12-04T16:05:24;35.43;;;17.17;;
13374;SDS011;6756;51.354;15.754;2023-12-04T16:09:26;30.53;;;17.10;;
13374;SDS011;6756;51.354;15.754;2023-12-04T16:13:27;42.53;;;19.57;;
13374;SDS011;6756;51.354;15.754;2023-12-04T16:17:28;40.57;;;20.33;;
13374;SDS011;6756;51.354;15.754;2023-12-04T16:21:29;59.30;;;25.70;;
13374;SDS011;6756;51.354;15.754;2023-12-04T16:25:30;45.30;;;20.83;;
13374;SDS011;6756;51.354;15.754;2023-12-04T16:29:32;60.87;;;22.87;;
13374;SDS011;6756;51.354;15.754;2023-12-04T16:33:35;74.80;;;26.50;;
13374;SDS011;6756;51.354;15.754;2023-12-04T16:37:36;113.07;;;47.07;;
13374;SDS011;6756;51.354;15.754;2023-12-04T16:41:39;161.30;;;62.97;;
13374;SDS011;6756;51.354;15.754;2023-12-04T16:45:40;100.57;;;39.73;;
13374;SDS011;6756;51.354;15.754;2023-12-04T16:49:41;55.27;;;22.33;;
13374;SDS011;6756;51.354;15.754;2023-12-04T16:53:42;51.73;;;22.27;;
13374;SDS011;6756;51.354;15.754;2023-12-04T16:57:44;38.53;;;20.87;;
13374;SDS011;6756;51.354;15.754;2023-12-04T17:01:47;36.50;;;19.83;;
13374;SDS011;6756;51.354;15.754;2023-12-04T17:05:49;42.87;;;21.27;;
13374;SDS011;6756;51.354;15.754;2023-12-04T17:09:50;53.20;;;25.30;;
13374;SDS011;6756;51.354;15.754;2023-12-04T17:13:51;45.47;;;22.60;;
13374;SDS011;6756;51.354;15.754;2023-12-04T17:17:52;50.20;;;23.70;;
13374;SDS011;6756;51.354;15.754;2023-12-04T17:21:54;78.70;;;31.80;;
13374;SDS011;6756;51.354;15.754;2023-12-04T17:25:55;104.07;;;39.20;;
13374;SDS011;6756;51.354;15.754;2023-12-04T17:29:56;54.63;;;26.27;;
13374;SDS011;6756;51.354;15.754;2023-12-04T17:33:59;60.17;;;27.50;;
13374;SDS011;6756;51.354;15.754;2023-12-04T17:38:00;47.47;;;23.87;;
13374;SDS011;6756;51.354;15.754;2023-12-04T17:42:03;52.23;;;25.10;;
13374;SDS011;6756;51.354;15.754;2023-12-04T17:46:05;60.43;;;29.03;;
13374;SDS011;6756;51.354;15.754;2023-12-04T17:50:08;84.20;;;33.80;;
13374;SDS011;6756;51.354;15.754;2023-12-04T17:54:11;55.13;;;27.23;;
13374;SDS011;6756;51.354;15.754;2023-12-04T17:58:12;58.30;;;30.17;;
13374;SDS011;6756;51.354;15.754;2023-12-04T18:02:13;61.30;;;31.20;;
13374;SDS011;6756;51.354;15.754;2023-12-04T18:06:14;55.67;;;29.80;;
13374;SDS011;6756;51.354;15.754;2023-12-04T18:10:15;46.90;;;24.57;;
13374;SDS011;6756;51.354;15.754;2023-12-04T18:14:16;49.50;;;24.83;;
13374;SDS011;6756;51.354;15.754;2023-12-04T18:18:17;42.03;;;20.27;;
13374;SDS011;6756;51.354;15.754;2023-12-04T18:22:18;37.13;;;20.73;;
13374;SDS011;6756;51.354;15.754;2023-12-04T18:26:19;43.43;;;21.63;;
13374;SDS011;6756;51.354;15.754;2023-12-04T18:30:20;42.07;;;21.63;;
13374;SDS011;6756;51.354;15.754;2023-12-04T18:34:22;34.63;;;19.87;;
13374;SDS011;6756;51.354;15.754;2023-12-04T18:38:26;40.47;;;20.53;;
13374;SDS011;6756;51.354;15.754;2023-12-04T18:42:32;37.47;;;21.67;;
13374;SDS011;6756;51.354;15.754;2023-12-04T18:46:33;39.13;;;21.40;;
13374;SDS011;6756;51.354;15.754;2023-12-04T18:50:34;44.50;;;23.07;;
13374;SDS011;6756;51.354;15.754;2023-12-04T18:54:40;39.00;;;21.43;;
13374;SDS011;6756;51.354;15.754;2023-12-04T18:58:41;37.47;;;20.40;;
13374;SDS011;6756;51.354;15.754;2023-12-04T19:02:43;40.17;;;20.70;;
13374;SDS011;6756;51.354;15.754;2023-12-04T19:06:46;39.43;;;21.60;;
13374;SDS011;6756;51.354;15.754;2023-12-04T19:10:48;39.57;;;21.60;;
13374;SDS011;6756;51.354;15.754;2023-12-04T19:14:56;39.13;;;21.57;;
13374;SDS011;6756;51.354;15.754;2023-12-04T19:18:59;40.67;;;21.10;;
13374;SDS011;6756;51.354;15.754;2023-12-04T19:23:00;37.60;;;20.47;;
13374;SDS011;6756;51.354;15.754;2023-12-04T19:27:04;38.37;;;20.40;;
13374;SDS011;6756;51.354;15.754;2023-12-04T19:31:05;40.03;;;20.73;;
13374;SDS011;6756;51.354;15.754;2023-12-04T19:35:08;34.70;;;19.83;;
13374;SDS011;6756;51.354;15.754;2023-12-04T19:39:10;32.13;;;18.87;;
13374;SDS011;6756;51.354;15.754;2023-12-04T19:43:13;37.40;;;19.53;;
13374;SDS011;6756;51.354;15.754;2023-12-04T19:47:15;37.43;;;19.73;;
13374;SDS011;6756;51.354;15.754;2023-12-04T19:51:16;39.60;;;22.13;;
13374;SDS011;6756;51.354;15.754;2023-12-04T19:55:18;45.90;;;22.17;;
13374;SDS011;6756;51.354;15.754;2023-12-04T19:59:20;44.67;;;21.47;;
13374;SDS011;6756;51.354;15.754;2023-12-04T20:03:23;35.27;;;20.90;;
13374;SDS011;6756;51.354;15.754;2023-12-04T20:07:24;40.33;;;22.20;;
13374;SDS011;6756;51.354;15.754;2023-12-04T20:11:25;37.67;;;22.20;;
13374;SDS011;6756;51.354;15.754;2023-12-04T20:15:26;46.87;;;25.03;;
13374;SDS011;6756;51.354;15.754;2023-12-04T20:19:27;45.33;;;25.13;;
13374;SDS011;6756;51.354;15.754;2023-12-04T20:23:31;48.23;;;26.43;;
13374;SDS011;6756;51.354;15.754;2023-12-04T20:27:32;51.43;;;27.90;;
13374;SDS011;6756;51.354;15.754;2023-12-04T20:31:33;40.27;;;21.63;;
13374;SDS011;6756;51.354;15.754;2023-12-04T20:35:36;35.00;;;20.23;;
13374;SDS011;6756;51.354;15.754;2023-12-04T20:39:40;36.97;;;20.87;;
13374;SDS011;6756;51.354;15.754;2023-12-04T20:43:41;38.93;;;21.00;;
13374;SDS011;6756;51.354;15.754;2023-12-04T20:47:42;39.27;;;22.33;;
13374;SDS011;6756;51.354;15.754;2023-12-04T20:51:43;43.63;;;23.10;;
13374;SDS011;6756;51.354;15.754;2023-12-04T20:55:44;43.27;;;23.80;;
13374;SDS011;6756;51.354;15.754;2023-12-04T20:59:46;40.43;;;21.57;;
13374;SDS011;6756;51.354;15.754;2023-12-04T21:03:47;41.03;;;21.67;;
13374;SDS011;6756;51.354;15.754;2023-12-04T21:07:48;44.43;;;23.60;;
13374;SDS011;6756;51.354;15.754;2023-12-04T21:11:50;41.87;;;21.13;;
13374;SDS011;6756;51.354;15.754;2023-12-04T21:15:51;34.57;;;19.47;;
13374;SDS011;6756;51.354;15.754;2023-12-04T21:19:52;39.33;;;20.83;;
13374;SDS011;6756;51.354;15.754;2023-12-04T21:23:53;41.93;;;21.37;;
13374;SDS011;6756;51.354;15.754;2023-12-04T21:27:53;48.63;;;22.23;;
13374;SDS011;6756;51.354;15.754;2023-12-04T21:31:57;46.70;;;22.20;;
13374;SDS011;6756;51.354;15.754;2023-12-04T21:35:57;57.83;;;23.53;;
13374;SDS011;6756;51.354;15.754;2023-12-04T21:39:59;56.43;;;24.77;;
13374;SDS011;6756;51.354;15.754;2023-12-04T21:44:00;41.27;;;21.27;;
13374;SDS011;6756;51.354;15.754;2023-12-04T21:48:01;44.23;;;20.70;;
13374;SDS011;6756;51.354;15.754;2023-12-04T21:52:02;40.10;;;20.27;;
13374;SDS011;6756;51.354;15.754;2023-12-04T21:56:03;39.53;;;20.07;;
13374;SDS011;6756;51.354;15.754;2023-12-04T22:00:05;37.70;;;19.27;;
13374;SDS011;6756;51.354;15.754;2023-12-04T22:04:07;39.23;;;21.13;;
13374;SDS011;6756;51.354;15.754;2023-12-04T22:08:08;38.97;;;20.90;;
13374;SDS011;6756;51.354;15.754;2023-12-04T22:12:09;38.93;;;19.47;;
13374;SDS011;6756;51.354;15.754;2023-12-04T22:16:11;49.07;;;24.10;;
13374;SDS011;6756;51.354;15.754;2023-12-04T22:20:12;62.00;;;30.83;;
13374;SDS011;6756;51.354;15.754;2023-12-04T22:24:13;54.23;;;25.07;;
13374;SDS011;6756;51.354;15.754;2023-12-04T22:28:14;42.13;;;20.90;;
13374;SDS011;6756;51.354;15.754;2023-12-04T22:32:15;38.43;;;21.67;;
13374;SDS011;6756;51.354;15.754;2023-12-04T22:36:18;36.83;;;19.07;;
13374;SDS011;6756;51.354;15.754;2023-12-04T22:40:18;37.80;;;19.80;;
13374;SDS011;6756;51.354;15.754;2023-12-04T22:44:23;41.43;;;20.97;;
13374;SDS011;6756;51.354;15.754;2023-12-04T22:48:24;35.47;;;19.47;;
13374;SDS011;6756;51.354;15.754;2023-12-04T22:52:25;43.53;;;20.97;;
13374;SDS011;6756;51.354;15.754;2023-12-04T22:56:26;49.23;;;23.80;;
13374;SDS011;6756;51.354;15.754;2023-12-04T23:00:27;39.57;;;21.13;;
13374;SDS011;6756;51.354;15.754;2023-12-04T23:04:28;37.17;;;19.50;;
13374;SDS011;6756;51.354;15.754;2023-12-04T23:08:29;37.67;;;20.53;;
13374;SDS011;6756;51.354;15.754;2023-12-04T23:12:29;38.17;;;20.87;;
13374;SDS011;6756;51.354;15.754;2023-12-04T23:16:30;34.73;;;19.20;;
13374;SDS011;6756;51.354;15.754;2023-12-04T23:20:35;36.87;;;19.50;;
13374;SDS011;6756;51.354;15.754;2023-12-04T23:24:36;35.10;;;18.37;;
13374;SDS011;6756;51.354;15.754;2023-12-04T23:28:38;35.03;;;18.40;;
13374;SDS011;6756;51.354;15.754;2023-12-04T23:32:40;39.03;;;18.63;;
13374;SDS011;6756;51.354;15.754;2023-12-04T23:36:42;42.30;;;20.23;;
13374;SDS011;6756;51.354;15.754;2023-12-04T23:40:42;36.23;;;19.27;;
13374;SDS011;6756;51.354;15.754;2023-12-04T23:44:43;32.37;;;17.67;;
13374;SDS011;6756;51.354;15.754;2023-12-04T23:48:46;35.40;;;19.63;;